sensor_id;sensor_type;location;lat;lon;timestamp;temperature;humidity
292;DHT22;23311;48.776;9.162;2023-02-08T00:00:04;-3.30;95.50
292;DHT22;23311;48.776;9.162;2023-02-08T00:02:33;-3.40;95.50
292;DHT22;23311;48.776;9.162;2023-02-08T00:05:02;-3.50;95.50
292;DHT22;23311;48.776;9.162;2023-02-08T00:07:31;-3.60;95.50
292;DHT22;23311;48.776;9.162;2023-02-08T00:09:59;-3.70;95.50
292;DHT22;23311;48.776;9.162;2023-02-08T00:12:28;-3.80;95.50
292;DHT22;23311;48.776;9.162;2023-02-08T00:14:56;-3.80;95.50
292;DHT22;23311;48.776;9.162;2023-02-08T00:17:24;-3.80;95.50
292;DHT22;23311;48.776;9.162;2023-02-08T00:19:52;-3.70;95.50
292;DHT22;23311;48.776;9.162;2023-02-08T00:22:22;-3.50;95.50
292;DHT22;23311;48.776;9.162;2023-02-08T00:24:50;-3.50;95.50
292;DHT22;23311;48.776;9.162;2023-02-08T00:27:18;-3.60;95.50
292;DHT22;23311;48.776;9.162;2023-02-08T00:29:46;-3.70;95.50
292;DHT22;23311;48.776;9.162;2023-02-08T00:32:14;-3.80;95.50
292;DHT22;23311;48.776;9.162;2023-02-08T00:34:42;-3.90;95.50
292;DHT22;23311;48.776;9.162;2023-02-08T00:37:10;-3.80;95.50
292;DHT22;23311;48.776;9.162;2023-02-08T00:39:40;-3.90;95.50
292;DHT22;23311;48.776;9.162;2023-02-08T00:42:08;-3.90;95.50
292;DHT22;23311;48.776;9.162;2023-02-08T00:44:36;-3.90;95.50
292;DHT22;23311;48.776;9.162;2023-02-08T00:47:05;-3.90;95.50
292;DHT22;23311;48.776;9.162;2023-02-08T00:49:33;-3.90;95.50
292;DHT22;23311;48.776;9.162;2023-02-08T00:52:02;-3.90;95.50
292;DHT22;23311;48.776;9.162;2023-02-08T00:54:30;-3.20;95.50
292;DHT22;23311;48.776;9.162;2023-02-08T00:56:59;-3.30;95.50
292;DHT22;23311;48.776;9.162;2023-02-08T00:59:27;-3.30;95.50
292;DHT22;23311;48.776;9.162;2023-02-08T01:01:55;-3.40;95.50
292;DHT22;23311;48.776;9.162;2023-02-08T01:04:23;-3.50;95.50
292;DHT22;23311;48.776;9.162;2023-02-08T01:06:52;-3.60;95.50
292;DHT22;23311;48.776;9.162;2023-02-08T01:09:20;-3.70;95.50
292;DHT22;23311;48.776;9.162;2023-02-08T01:11:48;-3.80;95.50
292;DHT22;23311;48.776;9.162;2023-02-08T01:14:17;-4.00;95.50
292;DHT22;23311;48.776;9.162;2023-02-08T01:16:45;-4.00;95.50
292;DHT22;23311;48.776;9.162;2023-02-08T01:19:14;-4.10;95.50
292;DHT22;23311;48.776;9.162;2023-02-08T01:21:43;-4.10;95.50
292;DHT22;23311;48.776;9.162;2023-02-08T01:24:11;-4.20;95.50
292;DHT22;23311;48.776;9.162;2023-02-08T01:26:39;-4.20;95.50
292;DHT22;23311;48.776;9.162;2023-02-08T01:29:08;-4.20;95.50
292;DHT22;23311;48.776;9.162;2023-02-08T01:31:38;-4.20;95.50
292;DHT22;23311;48.776;9.162;2023-02-08T01:34:07;-4.30;95.50
292;DHT22;23311;48.776;9.162;2023-02-08T01:36:36;-4.30;95.50
292;DHT22;23311;48.776;9.162;2023-02-08T01:39:06;-4.20;95.50
292;DHT22;23311;48.776;9.162;2023-02-08T01:41:37;-3.90;95.50
292;DHT22;23311;48.776;9.162;2023-02-08T01:47:16;-4.20;95.50
292;DHT22;23311;48.776;9.162;2023-02-08T01:49:44;-4.20;95.50
292;DHT22;23311;48.776;9.162;2023-02-08T01:52:14;-4.30;95.50
292;DHT22;23311;48.776;9.162;2023-02-08T01:54:46;-4.10;95.50
292;DHT22;23311;48.776;9.162;2023-02-08T01:57:16;-4.00;95.50
292;DHT22;23311;48.776;9.162;2023-02-08T01:59:47;-4.10;95.50
292;DHT22;23311;48.776;9.162;2023-02-08T02:02:20;-4.30;95.50
292;DHT22;23311;48.776;9.162;2023-02-08T02:04:50;-4.30;95.50
292;DHT22;23311;48.776;9.162;2023-02-08T02:07:20;-4.40;95.50
292;DHT22;23311;48.776;9.162;2023-02-08T02:09:52;-4.40;95.50
292;DHT22;23311;48.776;9.162;2023-02-08T02:12:23;-4.50;95.50
292;DHT22;23311;48.776;9.162;2023-02-08T02:14:51;-4.60;95.50
292;DHT22;23311;48.776;9.162;2023-02-08T02:17:21;-4.70;95.50
292;DHT22;23311;48.776;9.162;2023-02-08T02:19:55;-4.70;95.50
292;DHT22;23311;48.776;9.162;2023-02-08T02:22:54;-4.70;95.50
292;DHT22;23311;48.776;9.162;2023-02-08T02:25:43;-4.50;95.50
292;DHT22;23311;48.776;9.162;2023-02-08T02:28:47;-4.40;95.50
292;DHT22;23311;48.776;9.162;2023-02-08T02:31:48;-4.30;95.50
292;DHT22;23311;48.776;9.162;2023-02-08T02:34:19;-4.20;95.50
292;DHT22;23311;48.776;9.162;2023-02-08T02:36:58;-4.10;95.50
292;DHT22;23311;48.776;9.162;2023-02-08T02:39:34;-4.10;95.50
292;DHT22;23311;48.776;9.162;2023-02-08T02:42:10;-4.10;95.50
292;DHT22;23311;48.776;9.162;2023-02-08T02:45:05;-4.10;95.50
292;DHT22;23311;48.776;9.162;2023-02-08T02:47:40;-4.20;95.50
292;DHT22;23311;48.776;9.162;2023-02-08T02:50:18;-4.30;95.50
292;DHT22;23311;48.776;9.162;2023-02-08T02:52:55;-4.10;95.50
292;DHT22;23311;48.776;9.162;2023-02-08T02:55:28;-4.20;95.50
292;DHT22;23311;48.776;9.162;2023-02-08T02:57:59;-4.30;95.50
292;DHT22;23311;48.776;9.162;2023-02-08T03:00:30;-4.50;95.50
292;DHT22;23311;48.776;9.162;2023-02-08T03:03:01;-4.50;95.50
292;DHT22;23311;48.776;9.162;2023-02-08T03:05:29;-4.60;95.50
292;DHT22;23311;48.776;9.162;2023-02-08T03:08:18;-4.60;95.50
292;DHT22;23311;48.776;9.162;2023-02-08T03:11:02;-4.50;95.50
292;DHT22;23311;48.776;9.162;2023-02-08T03:13:47;-4.40;95.50
292;DHT22;23311;48.776;9.162;2023-02-08T03:16:21;-4.40;95.50
292;DHT22;23311;48.776;9.162;2023-02-08T03:19:03;-4.50;95.50
292;DHT22;23311;48.776;9.162;2023-02-08T03:21:39;-4.60;95.50
292;DHT22;23311;48.776;9.162;2023-02-08T03:24:20;-4.60;95.50
292;DHT22;23311;48.776;9.162;2023-02-08T03:26:53;-4.70;95.50
292;DHT22;23311;48.776;9.162;2023-02-08T03:29:38;-4.70;95.50
292;DHT22;23311;48.776;9.162;2023-02-08T03:32:10;-4.70;95.50
292;DHT22;23311;48.776;9.162;2023-02-08T03:34:46;-4.70;95.50
292;DHT22;23311;48.776;9.162;2023-02-08T03:37:19;-4.90;95.50
292;DHT22;23311;48.776;9.162;2023-02-08T03:39:50;-4.90;95.50
292;DHT22;23311;48.776;9.162;2023-02-08T03:42:23;-5.00;95.50
292;DHT22;23311;48.776;9.162;2023-02-08T03:44:56;-5.00;95.50
292;DHT22;23311;48.776;9.162;2023-02-08T03:47:27;-5.00;95.50
292;DHT22;23311;48.776;9.162;2023-02-08T03:50:03;-5.00;95.50
292;DHT22;23311;48.776;9.162;2023-02-08T03:52:32;-5.00;95.50
292;DHT22;23311;48.776;9.162;2023-02-08T03:55:04;-4.90;95.50
292;DHT22;23311;48.776;9.162;2023-02-08T03:57:36;-5.00;95.50
292;DHT22;23311;48.776;9.162;2023-02-08T04:00:08;-4.90;95.50
292;DHT22;23311;48.776;9.162;2023-02-08T04:02:41;-4.90;95.50
292;DHT22;23311;48.776;9.162;2023-02-08T04:05:13;-4.80;95.50
292;DHT22;23311;48.776;9.162;2023-02-08T04:07:41;-4.80;95.50
292;DHT22;23311;48.776;9.162;2023-02-08T04:10:09;-4.70;95.50
292;DHT22;23311;48.776;9.162;2023-02-08T04:12:37;-4.80;95.50
292;DHT22;23311;48.776;9.162;2023-02-08T04:15:06;-4.70;95.50
292;DHT22;23311;48.776;9.162;2023-02-08T04:17:34;-4.80;95.50
292;DHT22;23311;48.776;9.162;2023-02-08T04:20:04;-4.80;95.50
292;DHT22;23311;48.776;9.162;2023-02-08T04:22:33;-4.80;95.50
292;DHT22;23311;48.776;9.162;2023-02-08T04:25:01;-4.80;95.50
292;DHT22;23311;48.776;9.162;2023-02-08T04:27:29;-4.90;95.50
292;DHT22;23311;48.776;9.162;2023-02-08T04:29:57;-4.90;95.50
292;DHT22;23311;48.776;9.162;2023-02-08T04:32:25;-4.90;95.50
292;DHT22;23311;48.776;9.162;2023-02-08T04:34:53;-4.80;95.50
292;DHT22;23311;48.776;9.162;2023-02-08T04:37:21;-4.80;95.50
292;DHT22;23311;48.776;9.162;2023-02-08T04:39:51;-4.80;95.50
292;DHT22;23311;48.776;9.162;2023-02-08T04:42:19;-4.60;95.50
292;DHT22;23311;48.776;9.162;2023-02-08T04:44:47;-4.60;95.50
292;DHT22;23311;48.776;9.162;2023-02-08T04:47:15;-4.60;95.50
292;DHT22;23311;48.776;9.162;2023-02-08T04:49:43;-4.70;95.50
292;DHT22;23311;48.776;9.162;2023-02-08T04:52:11;-4.90;95.50
292;DHT22;23311;48.776;9.162;2023-02-08T04:54:39;-4.70;95.50
292;DHT22;23311;48.776;9.162;2023-02-08T04:57:11;-4.40;95.50
292;DHT22;23311;48.776;9.162;2023-02-08T04:59:39;-4.50;95.50
292;DHT22;23311;48.776;9.162;2023-02-08T05:02:08;-4.70;95.50
292;DHT22;23311;48.776;9.162;2023-02-08T05:04:36;-4.80;95.50
292;DHT22;23311;48.776;9.162;2023-02-08T05:07:04;-4.90;95.50
292;DHT22;23311;48.776;9.162;2023-02-08T05:09:32;-5.10;95.50
292;DHT22;23311;48.776;9.162;2023-02-08T05:12:00;-5.00;95.50
292;DHT22;23311;48.776;9.162;2023-02-08T05:14:30;-5.10;95.50
292;DHT22;23311;48.776;9.162;2023-02-08T05:16:58;-5.20;95.50
292;DHT22;23311;48.776;9.162;2023-02-08T05:19:26;-5.20;95.50
292;DHT22;23311;48.776;9.162;2023-02-08T05:21:54;-5.10;95.50
292;DHT22;23311;48.776;9.162;2023-02-08T05:24:22;-5.20;95.50
292;DHT22;23311;48.776;9.162;2023-02-08T05:26:50;-5.20;95.50
292;DHT22;23311;48.776;9.162;2023-02-08T05:29:18;-5.20;95.50
292;DHT22;23311;48.776;9.162;2023-02-08T05:31:48;-5.20;95.50
292;DHT22;23311;48.776;9.162;2023-02-08T05:34:16;-5.20;95.50
292;DHT22;23311;48.776;9.162;2023-02-08T05:36:44;-5.20;95.50
292;DHT22;23311;48.776;9.162;2023-02-08T05:39:12;-5.00;95.50
292;DHT22;23311;48.776;9.162;2023-02-08T05:41:40;-5.10;95.50
292;DHT22;23311;48.776;9.162;2023-02-08T05:44:08;-5.00;95.50
292;DHT22;23311;48.776;9.162;2023-02-08T05:46:36;-4.90;95.50
292;DHT22;23311;48.776;9.162;2023-02-08T05:49:06;-4.90;95.50
292;DHT22;23311;48.776;9.162;2023-02-08T05:51:34;-4.80;95.50
292;DHT22;23311;48.776;9.162;2023-02-08T05:54:02;-4.70;95.50
292;DHT22;23311;48.776;9.162;2023-02-08T05:56:30;-4.80;95.50
292;DHT22;23311;48.776;9.162;2023-02-08T05:58:59;-4.90;95.50
292;DHT22;23311;48.776;9.162;2023-02-08T06:01:27;-5.00;95.50
292;DHT22;23311;48.776;9.162;2023-02-08T06:03:55;-4.90;95.50
292;DHT22;23311;48.776;9.162;2023-02-08T06:06:26;-5.10;95.50
292;DHT22;23311;48.776;9.162;2023-02-08T06:08:54;-5.10;95.50
292;DHT22;23311;48.776;9.162;2023-02-08T06:11:22;-5.10;95.50
292;DHT22;23311;48.776;9.162;2023-02-08T06:13:51;-5.10;95.50
292;DHT22;23311;48.776;9.162;2023-02-08T06:16:19;-5.00;95.50
292;DHT22;23311;48.776;9.162;2023-02-08T06:18:47;-5.10;95.50
292;DHT22;23311;48.776;9.162;2023-02-08T06:21:15;-5.30;95.50
292;DHT22;23311;48.776;9.162;2023-02-08T06:23:44;-5.30;95.50
292;DHT22;23311;48.776;9.162;2023-02-08T06:26:12;-5.20;95.50
292;DHT22;23311;48.776;9.162;2023-02-08T06:28:41;-5.20;95.50
292;DHT22;23311;48.776;9.162;2023-02-08T06:31:09;-5.20;95.50
292;DHT22;23311;48.776;9.162;2023-02-08T06:33:37;-5.20;95.50
292;DHT22;23311;48.776;9.162;2023-02-08T06:36:05;-5.20;95.50
292;DHT22;23311;48.776;9.162;2023-02-08T06:38:34;-5.20;95.50
292;DHT22;23311;48.776;9.162;2023-02-08T06:41:04;-5.30;95.50
292;DHT22;23311;48.776;9.162;2023-02-08T06:43:32;-5.30;95.50
292;DHT22;23311;48.776;9.162;2023-02-08T06:46:00;-5.20;95.50
292;DHT22;23311;48.776;9.162;2023-02-08T06:48:30;-5.10;95.50
292;DHT22;23311;48.776;9.162;2023-02-08T06:51:00;-5.10;95.50
292;DHT22;23311;48.776;9.162;2023-02-08T06:53:28;-5.10;95.50
292;DHT22;23311;48.776;9.162;2023-02-08T06:55:56;-5.10;95.50
292;DHT22;23311;48.776;9.162;2023-02-08T06:58:25;-5.00;95.50
292;DHT22;23311;48.776;9.162;2023-02-08T07:00:54;-4.90;95.50
292;DHT22;23311;48.776;9.162;2023-02-08T07:03:22;-4.90;95.50
292;DHT22;23311;48.776;9.162;2023-02-08T07:05:50;-4.90;95.50
292;DHT22;23311;48.776;9.162;2023-02-08T07:08:31;-4.70;95.50
292;DHT22;23311;48.776;9.162;2023-02-08T07:11:05;-4.60;95.50
292;DHT22;23311;48.776;9.162;2023-02-08T07:13:35;-4.40;95.50
292;DHT22;23311;48.776;9.162;2023-02-08T07:16:04;-4.40;95.50
292;DHT22;23311;48.776;9.162;2023-02-08T07:18:34;-4.50;95.50
292;DHT22;23311;48.776;9.162;2023-02-08T07:21:02;-4.20;95.50
292;DHT22;23311;48.776;9.162;2023-02-08T07:23:31;-4.10;95.50
292;DHT22;23311;48.776;9.162;2023-02-08T07:26:00;-4.20;95.50
292;DHT22;23311;48.776;9.162;2023-02-08T07:28:29;-4.20;95.50
292;DHT22;23311;48.776;9.162;2023-02-08T07:30:59;-4.10;95.50
292;DHT22;23311;48.776;9.162;2023-02-08T07:33:31;-3.90;95.50
292;DHT22;23311;48.776;9.162;2023-02-08T07:35:59;-3.80;95.50
292;DHT22;23311;48.776;9.162;2023-02-08T07:38:27;-3.70;95.50
292;DHT22;23311;48.776;9.162;2023-02-08T07:40:59;-3.70;95.50
292;DHT22;23311;48.776;9.162;2023-02-08T07:43:27;-3.40;95.50
292;DHT22;23311;48.776;9.162;2023-02-08T07:45:55;-3.20;95.50
292;DHT22;23311;48.776;9.162;2023-02-08T07:48:25;-1.70;95.50
292;DHT22;23311;48.776;9.162;2023-02-08T07:50:53;0.20;92.80
292;DHT22;23311;48.776;9.162;2023-02-08T07:53:21;0.10;89.00
292;DHT22;23311;48.776;9.162;2023-02-08T07:55:49;-0.60;88.80
292;DHT22;23311;48.776;9.162;2023-02-08T07:58:19;-1.30;89.70
292;DHT22;23311;48.776;9.162;2023-02-08T08:00:48;-1.80;90.30
292;DHT22;23311;48.776;9.162;2023-02-08T08:03:16;-2.10;91.50
292;DHT22;23311;48.776;9.162;2023-02-08T08:05:45;-2.40;92.40
292;DHT22;23311;48.776;9.162;2023-02-08T08:08:17;-2.50;93.00
292;DHT22;23311;48.776;9.162;2023-02-08T08:10:45;-2.50;93.30
292;DHT22;23311;48.776;9.162;2023-02-08T08:13:13;-2.30;93.10
292;DHT22;23311;48.776;9.162;2023-02-08T08:15:41;-2.20;92.00
292;DHT22;23311;48.776;9.162;2023-02-08T08:18:09;-2.10;92.00
292;DHT22;23311;48.776;9.162;2023-02-08T08:20:37;-2.10;92.10
292;DHT22;23311;48.776;9.162;2023-02-08T08:23:07;-2.20;91.90
292;DHT22;23311;48.776;9.162;2023-02-08T08:25:36;-2.20;92.10
292;DHT22;23311;48.776;9.162;2023-02-08T08:28:04;-2.20;92.60
292;DHT22;23311;48.776;9.162;2023-02-08T08:30:32;-2.40;92.40
292;DHT22;23311;48.776;9.162;2023-02-08T08:33:01;-2.40;93.10
292;DHT22;23311;48.776;9.162;2023-02-08T08:35:29;-2.40;93.80
292;DHT22;23311;48.776;9.162;2023-02-08T08:37:57;-2.30;93.30
292;DHT22;23311;48.776;9.162;2023-02-08T08:40:26;-2.20;92.80
292;DHT22;23311;48.776;9.162;2023-02-08T08:42:55;-2.20;92.20
292;DHT22;23311;48.776;9.162;2023-02-08T08:45:24;-2.20;92.10
292;DHT22;23311;48.776;9.162;2023-02-08T08:47:52;-2.00;91.20
292;DHT22;23311;48.776;9.162;2023-02-08T08:50:20;-1.90;90.70
292;DHT22;23311;48.776;9.162;2023-02-08T08:52:48;-1.80;90.10
292;DHT22;23311;48.776;9.162;2023-02-08T08:55:16;-1.80;90.10
292;DHT22;23311;48.776;9.162;2023-02-08T08:57:45;-1.80;90.50
292;DHT22;23311;48.776;9.162;2023-02-08T09:00:14;-1.70;90.40
292;DHT22;23311;48.776;9.162;2023-02-08T09:02:42;-1.80;90.40
292;DHT22;23311;48.776;9.162;2023-02-08T09:05:10;-1.80;90.40
292;DHT22;23311;48.776;9.162;2023-02-08T09:07:38;-1.70;90.50
292;DHT22;23311;48.776;9.162;2023-02-08T09:10:06;-1.60;90.10
292;DHT22;23311;48.776;9.162;2023-02-08T09:12:35;-1.50;89.80
292;DHT22;23311;48.776;9.162;2023-02-08T09:15:05;-1.50;89.50
292;DHT22;23311;48.776;9.162;2023-02-08T09:17:35;-1.50;89.30
292;DHT22;23311;48.776;9.162;2023-02-08T09:20:04;-1.40;89.40
292;DHT22;23311;48.776;9.162;2023-02-08T09:22:32;-1.30;89.50
292;DHT22;23311;48.776;9.162;2023-02-08T09:25:00;-1.30;89.70
292;DHT22;23311;48.776;9.162;2023-02-08T09:27:29;-1.10;89.30
292;DHT22;23311;48.776;9.162;2023-02-08T09:29:57;-1.10;88.60
292;DHT22;23311;48.776;9.162;2023-02-08T09:32:29;-1.10;88.60
292;DHT22;23311;48.776;9.162;2023-02-08T09:34:59;-1.00;88.60
292;DHT22;23311;48.776;9.162;2023-02-08T09:37:29;-1.00;88.10
292;DHT22;23311;48.776;9.162;2023-02-08T09:39:57;-0.90;87.60
292;DHT22;23311;48.776;9.162;2023-02-08T09:42:32;-0.90;87.00
292;DHT22;23311;48.776;9.162;2023-02-08T09:47:59;-0.70;86.70
292;DHT22;23311;48.776;9.162;2023-02-08T09:50:33;-0.60;86.80
292;DHT22;23311;48.776;9.162;2023-02-08T09:53:10;-0.40;86.40
292;DHT22;23311;48.776;9.162;2023-02-08T09:55:41;-0.40;86.40
292;DHT22;23311;48.776;9.162;2023-02-08T09:58:18;-0.20;86.00
292;DHT22;23311;48.776;9.162;2023-02-08T10:00:51;-0.10;85.70
292;DHT22;23311;48.776;9.162;2023-02-08T10:03:30;-0.10;85.10
292;DHT22;23311;48.776;9.162;2023-02-08T10:06:00;-0.10;85.30
292;DHT22;23311;48.776;9.162;2023-02-08T10:08:29;0.00;85.00
292;DHT22;23311;48.776;9.162;2023-02-08T10:11:17;0.10;85.10
292;DHT22;23311;48.776;9.162;2023-02-08T10:14:08;0.20;84.50
292;DHT22;23311;48.776;9.162;2023-02-08T10:17:01;0.30;84.50
292;DHT22;23311;48.776;9.162;2023-02-08T10:19:47;0.30;84.20
292;DHT22;23311;48.776;9.162;2023-02-08T10:22:27;0.40;84.40
292;DHT22;23311;48.776;9.162;2023-02-08T10:28:06;0.50;84.20
292;DHT22;23311;48.776;9.162;2023-02-08T10:30:43;0.60;83.80
292;DHT22;23311;48.776;9.162;2023-02-08T10:33:17;0.60;83.50
292;DHT22;23311;48.776;9.162;2023-02-08T10:35:48;0.70;83.10
292;DHT22;23311;48.776;9.162;2023-02-08T10:38:23;0.90;83.10
292;DHT22;23311;48.776;9.162;2023-02-08T10:41:01;0.90;82.70
292;DHT22;23311;48.776;9.162;2023-02-08T10:43:36;1.00;82.30
292;DHT22;23311;48.776;9.162;2023-02-08T10:46:11;1.10;82.20
292;DHT22;23311;48.776;9.162;2023-02-08T10:48:48;1.30;82.10
292;DHT22;23311;48.776;9.162;2023-02-08T10:51:23;1.40;81.60
292;DHT22;23311;48.776;9.162;2023-02-08T10:53:52;1.40;80.90
292;DHT22;23311;48.776;9.162;2023-02-08T10:56:32;1.50;81.90
292;DHT22;23311;48.776;9.162;2023-02-08T10:59:15;1.70;81.10
292;DHT22;23311;48.776;9.162;2023-02-08T11:01:45;1.80;80.80
292;DHT22;23311;48.776;9.162;2023-02-08T11:04:14;1.70;80.50
292;DHT22;23311;48.776;9.162;2023-02-08T11:06:46;1.80;80.80
292;DHT22;23311;48.776;9.162;2023-02-08T11:09:25;1.80;80.70
292;DHT22;23311;48.776;9.162;2023-02-08T11:11:55;1.70;80.50
292;DHT22;23311;48.776;9.162;2023-02-08T11:14:26;1.80;80.80
292;DHT22;23311;48.776;9.162;2023-02-08T11:17:24;1.90;80.10
292;DHT22;23311;48.776;9.162;2023-02-08T11:19:53;2.00;80.00
292;DHT22;23311;48.776;9.162;2023-02-08T11:22:23;2.10;79.40
292;DHT22;23311;48.776;9.162;2023-02-08T11:24:55;2.20;79.60
292;DHT22;23311;48.776;9.162;2023-02-08T11:27:32;2.20;79.80
292;DHT22;23311;48.776;9.162;2023-02-08T11:30:19;2.40;79.20
292;DHT22;23311;48.776;9.162;2023-02-08T11:32:49;2.60;78.00
292;DHT22;23311;48.776;9.162;2023-02-08T11:35:35;2.70;77.50
292;DHT22;23311;48.776;9.162;2023-02-08T11:38:05;2.60;77.30
292;DHT22;23311;48.776;9.162;2023-02-08T11:40:35;2.50;77.20
292;DHT22;23311;48.776;9.162;2023-02-08T11:43:03;2.70;77.50
292;DHT22;23311;48.776;9.162;2023-02-08T11:45:34;2.90;77.30
292;DHT22;23311;48.776;9.162;2023-02-08T11:48:02;3.00;77.20
292;DHT22;23311;48.776;9.162;2023-02-08T11:50:34;3.00;76.70
292;DHT22;23311;48.776;9.162;2023-02-08T11:53:06;3.00;76.90
292;DHT22;23311;48.776;9.162;2023-02-08T11:55:35;3.10;76.80
292;DHT22;23311;48.776;9.162;2023-02-08T11:58:04;3.20;76.60
292;DHT22;23311;48.776;9.162;2023-02-08T12:00:57;3.20;76.20
292;DHT22;23311;48.776;9.162;2023-02-08T12:03:26;3.30;76.40
292;DHT22;23311;48.776;9.162;2023-02-08T12:06:14;3.40;76.20
292;DHT22;23311;48.776;9.162;2023-02-08T12:08:53;3.50;76.00
292;DHT22;23311;48.776;9.162;2023-02-08T12:11:30;3.50;75.80
292;DHT22;23311;48.776;9.162;2023-02-08T12:14:29;3.50;75.50
292;DHT22;23311;48.776;9.162;2023-02-08T12:20:36;3.60;75.10
292;DHT22;23311;48.776;9.162;2023-02-08T12:23:26;3.70;74.70
292;DHT22;23311;48.776;9.162;2023-02-08T12:26:08;3.70;74.80
292;DHT22;23311;48.776;9.162;2023-02-08T12:28:56;3.80;74.30
292;DHT22;23311;48.776;9.162;2023-02-08T12:31:36;3.70;74.10
292;DHT22;23311;48.776;9.162;2023-02-08T12:34:15;3.80;74.90
292;DHT22;23311;48.776;9.162;2023-02-08T12:37:00;3.90;74.60
292;DHT22;23311;48.776;9.162;2023-02-08T12:39:56;4.00;74.50
292;DHT22;23311;48.776;9.162;2023-02-08T12:42:54;4.10;74.30
292;DHT22;23311;48.776;9.162;2023-02-08T12:45:43;4.10;73.90
292;DHT22;23311;48.776;9.162;2023-02-08T12:48:33;4.20;73.80
292;DHT22;23311;48.776;9.162;2023-02-08T12:51:10;4.30;73.70
292;DHT22;23311;48.776;9.162;2023-02-08T12:53:44;4.50;73.00
292;DHT22;23311;48.776;9.162;2023-02-08T12:56:16;4.80;72.70
292;DHT22;23311;48.776;9.162;2023-02-08T12:58:50;5.30;71.60
292;DHT22;23311;48.776;9.162;2023-02-08T13:01:37;6.10;70.80
292;DHT22;23311;48.776;9.162;2023-02-08T13:04:09;7.10;69.10
292;DHT22;23311;48.776;9.162;2023-02-08T13:06:41;7.90;67.30
292;DHT22;23311;48.776;9.162;2023-02-08T13:09:15;8.40;65.50
292;DHT22;23311;48.776;9.162;2023-02-08T13:11:49;8.70;64.80
292;DHT22;23311;48.776;9.162;2023-02-08T13:14:27;9.10;63.90
292;DHT22;23311;48.776;9.162;2023-02-08T13:17:04;8.70;63.80
292;DHT22;23311;48.776;9.162;2023-02-08T13:19:37;8.90;63.30
292;DHT22;23311;48.776;9.162;2023-02-08T13:22:25;8.60;63.70
292;DHT22;23311;48.776;9.162;2023-02-08T13:24:59;8.80;64.10
292;DHT22;23311;48.776;9.162;2023-02-08T13:27:34;8.30;63.80
292;DHT22;23311;48.776;9.162;2023-02-08T13:30:05;7.50;65.20
292;DHT22;23311;48.776;9.162;2023-02-08T13:32:37;6.60;66.40
292;DHT22;23311;48.776;9.162;2023-02-08T13:35:13;5.80;68.30
292;DHT22;23311;48.776;9.162;2023-02-08T13:37:49;5.30;69.80
292;DHT22;23311;48.776;9.162;2023-02-08T13:40:20;5.00;71.00
292;DHT22;23311;48.776;9.162;2023-02-08T13:42:57;4.90;71.40
292;DHT22;23311;48.776;9.162;2023-02-08T13:45:35;4.80;71.50
292;DHT22;23311;48.776;9.162;2023-02-08T13:48:06;4.60;71.80
292;DHT22;23311;48.776;9.162;2023-02-08T13:50:45;4.50;72.10
292;DHT22;23311;48.776;9.162;2023-02-08T13:53:15;4.40;72.40
292;DHT22;23311;48.776;9.162;2023-02-08T13:55:55;4.50;72.60
292;DHT22;23311;48.776;9.162;2023-02-08T13:58:38;4.50;72.70
292;DHT22;23311;48.776;9.162;2023-02-08T14:01:26;4.60;72.90
292;DHT22;23311;48.776;9.162;2023-02-08T14:04:28;4.50;72.90
292;DHT22;23311;48.776;9.162;2023-02-08T14:07:18;4.50;72.90
292;DHT22;23311;48.776;9.162;2023-02-08T14:09:56;4.40;73.00
292;DHT22;23311;48.776;9.162;2023-02-08T14:12:30;4.40;73.30
292;DHT22;23311;48.776;9.162;2023-02-08T14:15:23;4.40;73.10
292;DHT22;23311;48.776;9.162;2023-02-08T14:17:54;4.40;73.20
292;DHT22;23311;48.776;9.162;2023-02-08T14:20:28;4.40;73.40
292;DHT22;23311;48.776;9.162;2023-02-08T14:23:00;4.30;73.80
292;DHT22;23311;48.776;9.162;2023-02-08T14:25:39;4.30;74.20
292;DHT22;23311;48.776;9.162;2023-02-08T14:28:23;4.30;74.20
292;DHT22;23311;48.776;9.162;2023-02-08T14:30:55;4.30;74.20
292;DHT22;23311;48.776;9.162;2023-02-08T14:33:27;4.30;74.50
292;DHT22;23311;48.776;9.162;2023-02-08T14:35:59;4.30;74.60
292;DHT22;23311;48.776;9.162;2023-02-08T14:39:03;4.40;74.60
292;DHT22;23311;48.776;9.162;2023-02-08T14:41:46;4.30;74.80
292;DHT22;23311;48.776;9.162;2023-02-08T14:44:43;4.20;75.10
292;DHT22;23311;48.776;9.162;2023-02-08T14:50:36;4.20;75.20
292;DHT22;23311;48.776;9.162;2023-02-08T14:53:20;4.20;75.50
292;DHT22;23311;48.776;9.162;2023-02-08T14:55:54;4.10;75.70
292;DHT22;23311;48.776;9.162;2023-02-08T14:58:27;4.00;76.10
292;DHT22;23311;48.776;9.162;2023-02-08T15:01:00;4.00;76.10
292;DHT22;23311;48.776;9.162;2023-02-08T15:03:30;4.00;76.10
292;DHT22;23311;48.776;9.162;2023-02-08T15:08:56;4.00;76.80
292;DHT22;23311;48.776;9.162;2023-02-08T15:11:27;3.90;76.90
292;DHT22;23311;48.776;9.162;2023-02-08T15:13:59;3.80;77.30
292;DHT22;23311;48.776;9.162;2023-02-08T15:16:32;3.80;77.40
292;DHT22;23311;48.776;9.162;2023-02-08T15:19:02;3.60;77.50
292;DHT22;23311;48.776;9.162;2023-02-08T15:21:33;3.60;77.90
292;DHT22;23311;48.776;9.162;2023-02-08T15:24:10;3.50;78.00
292;DHT22;23311;48.776;9.162;2023-02-08T15:26:44;3.50;78.30
292;DHT22;23311;48.776;9.162;2023-02-08T15:29:18;3.40;78.40
292;DHT22;23311;48.776;9.162;2023-02-08T15:31:47;3.30;78.60
292;DHT22;23311;48.776;9.162;2023-02-08T15:34:16;3.30;79.00
292;DHT22;23311;48.776;9.162;2023-02-08T15:36:50;3.20;79.20
292;DHT22;23311;48.776;9.162;2023-02-08T15:39:31;3.10;79.40
292;DHT22;23311;48.776;9.162;2023-02-08T15:42:00;3.00;79.90
292;DHT22;23311;48.776;9.162;2023-02-08T15:44:31;2.90;80.00
292;DHT22;23311;48.776;9.162;2023-02-08T15:47:01;2.90;80.10
292;DHT22;23311;48.776;9.162;2023-02-08T15:49:32;2.80;80.20
292;DHT22;23311;48.776;9.162;2023-02-08T15:52:03;2.70;80.60
292;DHT22;23311;48.776;9.162;2023-02-08T15:54:32;2.70;81.20
292;DHT22;23311;48.776;9.162;2023-02-08T15:57:03;2.60;81.60
292;DHT22;23311;48.776;9.162;2023-02-08T15:59:35;2.60;82.10
292;DHT22;23311;48.776;9.162;2023-02-08T16:02:15;2.40;82.60
292;DHT22;23311;48.776;9.162;2023-02-08T16:04:45;2.30;83.30
292;DHT22;23311;48.776;9.162;2023-02-08T16:07:23;2.10;83.70
292;DHT22;23311;48.776;9.162;2023-02-08T16:09:52;2.10;84.00
292;DHT22;23311;48.776;9.162;2023-02-08T16:12:22;2.00;84.20
292;DHT22;23311;48.776;9.162;2023-02-08T16:14:54;2.00;84.30
292;DHT22;23311;48.776;9.162;2023-02-08T16:17:34;2.00;84.40
292;DHT22;23311;48.776;9.162;2023-02-08T16:20:20;2.10;84.00
292;DHT22;23311;48.776;9.162;2023-02-08T16:26:17;1.90;83.80
292;DHT22;23311;48.776;9.162;2023-02-08T16:29:15;1.80;84.20
292;DHT22;23311;48.776;9.162;2023-02-08T16:32:16;1.60;84.50
292;DHT22;23311;48.776;9.162;2023-02-08T16:35:12;1.50;84.80
292;DHT22;23311;48.776;9.162;2023-02-08T16:42:00;1.30;85.60
292;DHT22;23311;48.776;9.162;2023-02-08T16:45:10;1.20;86.20
292;DHT22;23311;48.776;9.162;2023-02-08T16:47:54;1.10;86.60
292;DHT22;23311;48.776;9.162;2023-02-08T16:50:47;1.00;86.70
292;DHT22;23311;48.776;9.162;2023-02-08T16:53:25;1.00;87.00
292;DHT22;23311;48.776;9.162;2023-02-08T16:56:20;0.90;87.10
292;DHT22;23311;48.776;9.162;2023-02-08T16:59:17;0.80;87.20
292;DHT22;23311;48.776;9.162;2023-02-08T17:02:19;0.70;87.50
292;DHT22;23311;48.776;9.162;2023-02-08T17:05:00;0.60;88.20
292;DHT22;23311;48.776;9.162;2023-02-08T17:08:12;0.60;88.40
292;DHT22;23311;48.776;9.162;2023-02-08T17:11:27;0.40;88.60
292;DHT22;23311;48.776;9.162;2023-02-08T17:15:01;0.20;89.40